createdAt,value
2022-09-07T00:01:09.586Z,4.93
2022-09-07T00:03:37.000Z,5.90
2022-09-07T00:06:13.908Z,5.03
2022-09-07T00:08:43.874Z,4.78
2022-09-07T00:11:19.350Z,3.65
2022-09-07T00:13:49.969Z,7.70
2022-09-07T00:16:30.155Z,8.18
2022-09-07T00:19:03.855Z,7.60
2022-09-07T00:21:31.884Z,10.05
2022-09-07T00:26:30.780Z,5.00
2022-09-07T00:29:02.225Z,4.15
2022-09-07T00:31:32.239Z,4.80
2022-09-07T00:34:03.307Z,4.15
2022-09-07T00:36:31.188Z,6.97
2022-09-07T00:38:58.675Z,8.63
2022-09-07T00:41:26.649Z,3.92
2022-09-07T00:46:34.354Z,3.63
2022-09-07T00:49:19.352Z,6.40
2022-09-07T00:52:00.913Z,5.35
2022-09-07T00:54:42.438Z,5.82
2022-09-07T00:57:10.853Z,4.88
2022-09-07T00:59:46.906Z,5.80
2022-09-07T01:02:17.590Z,3.90
2022-09-07T01:04:59.121Z,6.80
2022-09-07T01:07:26.252Z,4.55
2022-09-07T01:09:57.053Z,4.25
2022-09-07T01:12:24.981Z,4.05
2022-09-07T01:18:07.922Z,5.85
2022-09-07T01:21:27.233Z,3.67
2022-09-07T01:25:02.316Z,4.40
2022-09-07T01:28:03.542Z,6.75
2022-09-07T01:30:40.045Z,4.85
2022-09-07T01:33:40.692Z,5.40
2022-09-07T01:36:36.925Z,7.30
2022-09-07T01:39:06.487Z,5.35
2022-09-07T01:42:00.949Z,5.25
2022-09-07T01:44:52.229Z,5.95
2022-09-07T01:47:37.214Z,8.25
2022-09-07T01:50:37.835Z,6.70
2022-09-07T01:53:55.061Z,4.97
2022-09-07T01:56:44.653Z,4.28
2022-09-07T01:59:30.204Z,4.47
2022-09-07T02:02:14.461Z,5.97
2022-09-07T02:05:12.798Z,4.13
2022-09-07T02:08:15.991Z,5.22
2022-09-07T02:11:09.010Z,3.92
2022-09-07T02:13:54.253Z,5.53
2022-09-07T02:16:31.546Z,6.75
2022-09-07T02:19:17.320Z,3.72
2022-09-07T02:21:59.467Z,4.68
2022-09-07T02:24:40.988Z,4.72
2022-09-07T02:27:21.364Z,10.35
2022-09-07T02:29:48.761Z,3.90
2022-09-07T02:32:15.810Z,3.83
2022-09-07T02:34:43.040Z,8.63
2022-09-07T02:37:13.971Z,5.18
2022-09-07T02:39:41.315Z,4.15
2022-09-07T02:42:13.896Z,5.75
2022-09-07T02:44:46.641Z,9.55
2022-09-07T02:48:08.791Z,5.43
2022-09-07T02:51:26.777Z,5.82
2022-09-07T02:54:46.385Z,10.05
2022-09-07T02:57:45.895Z,6.43
2022-09-07T03:00:26.105Z,4.25
2022-09-07T03:03:20.555Z,6.68
2022-09-07T03:06:04.405Z,6.70
2022-09-07T03:08:48.947Z,4.63
2022-09-07T03:11:18.419Z,3.47
2022-09-07T03:13:45.514Z,9.68
2022-09-07T03:16:17.251Z,7.30
2022-09-07T03:18:44.970Z,7.75
2022-09-07T03:21:12.132Z,5.70
2022-09-07T03:23:39.555Z,8.77
2022-09-07T03:26:06.741Z,4.57
2022-09-07T03:28:33.748Z,7.20
2022-09-07T03:31:03.085Z,6.57
2022-09-07T03:33:30.140Z,9.25
2022-09-07T03:36:02.505Z,4.72
2022-09-07T03:38:31.180Z,6.47
2022-09-07T03:41:02.232Z,5.97
2022-09-07T03:43:31.503Z,5.32
2022-09-07T03:46:05.371Z,8.98
2022-09-07T03:48:35.365Z,5.30
2022-09-07T03:51:08.451Z,5.00
2022-09-07T03:53:44.150Z,7.90
2022-09-07T03:56:21.176Z,4.45
2022-09-07T03:58:51.414Z,5.65
2022-09-07T04:01:24.660Z,8.85
2022-09-07T04:04:01.316Z,5.55
2022-09-07T04:06:31.563Z,9.43
2022-09-07T04:09:06.339Z,6.60
2022-09-07T04:11:35.138Z,5.57
2022-09-07T04:14:02.499Z,9.48
2022-09-07T04:16:31.432Z,9.20
2022-09-07T04:18:59.136Z,6.90
2022-09-07T04:21:30.444Z,5.47
2022-09-07T04:23:59.155Z,7.72
2022-09-07T04:26:32.001Z,9.00
2022-09-07T04:29:04.236Z,7.57
2022-09-07T04:31:35.062Z,5.47
2022-09-07T04:34:03.194Z,9.52
2022-09-07T04:36:30.382Z,7.95
2022-09-07T04:39:02.646Z,12.23
2022-09-07T04:41:33.573Z,13.02
2022-09-07T04:44:05.027Z,6.85
2022-09-07T04:46:37.059Z,8.48
2022-09-07T04:49:12.188Z,14.95
2022-09-07T04:51:42.958Z,8.82
2022-09-07T04:54:11.949Z,6.65
2022-09-07T04:56:39.128Z,6.63
2022-09-07T04:59:06.425Z,8.83
2022-09-07T05:01:33.772Z,7.78
2022-09-07T05:04:03.713Z,7.72
2022-09-07T05:06:30.948Z,10.88
2022-09-07T05:09:00.142Z,6.55
2022-09-07T05:11:30.120Z,9.00
2022-09-07T05:14:04.199Z,9.68
2022-09-07T05:16:32.230Z,10.65
2022-09-07T05:21:35.419Z,9.77
2022-09-07T05:24:04.522Z,13.13
2022-09-07T05:26:36.746Z,10.95
2022-09-07T05:31:54.971Z,12.38
2022-09-07T05:34:30.221Z,12.45
2022-09-07T05:36:58.084Z,12.85
2022-09-07T05:39:26.010Z,7.00
2022-09-07T05:41:53.197Z,12.73
2022-09-07T05:47:07.697Z,12.50
2022-09-07T05:49:34.824Z,9.63
2022-09-07T05:52:01.971Z,10.00
2022-09-07T05:54:29.060Z,9.40
2022-09-07T05:56:56.093Z,7.50
2022-09-07T05:59:23.122Z,10.65
2022-09-07T06:01:50.184Z,16.55
2022-09-07T06:04:17.406Z,9.75
2022-09-07T06:06:54.629Z,8.23
2022-09-07T06:09:31.743Z,11.20
2022-09-07T06:12:01.859Z,8.83
2022-09-07T06:14:28.899Z,8.40
2022-09-07T06:16:56.046Z,9.35
2022-09-07T06:19:23.059Z,16.53
2022-09-07T06:21:50.141Z,12.50
2022-09-07T06:24:17.290Z,9.57
2022-09-07T06:26:44.339Z,5.93
2022-09-07T06:29:11.544Z,10.60
2022-09-07T06:34:26.447Z,7.05
2022-09-07T06:36:53.450Z,7.18
2022-09-07T06:39:20.454Z,12.43
2022-09-07T06:42:02.849Z,10.48
2022-09-07T06:44:31.155Z,8.75
2022-09-07T06:49:29.181Z,9.70
2022-09-07T06:51:59.137Z,18.70
2022-09-07T06:57:13.138Z,10.18
2022-09-07T06:59:40.140Z,9.57
2022-09-07T07:02:12.687Z,9.70
2022-09-07T07:04:41.171Z,11.88
2022-09-07T07:07:15.323Z,14.18
2022-09-07T07:09:42.652Z,20.27
2022-09-07T07:15:05.762Z,12.40
2022-09-07T07:17:32.736Z,9.32
2022-09-07T07:19:59.733Z,13.40
2022-09-07T07:22:45.732Z,10.73
2022-09-07T07:25:15.116Z,10.38
2022-09-07T07:27:42.509Z,10.55
2022-09-07T07:30:10.389Z,10.00
2022-09-07T07:35:07.750Z,11.82
2022-09-07T07:37:37.208Z,10.88
2022-09-07T07:42:41.882Z,10.05
2022-09-07T07:47:59.182Z,9.02
2022-09-07T07:50:33.924Z,7.87
2022-09-07T07:55:48.409Z,11.07
2022-09-07T07:58:15.379Z,8.23
2022-09-07T08:00:57.883Z,8.57
2022-09-07T08:03:26.311Z,8.98
2022-09-07T08:05:54.555Z,11.02
2022-09-07T08:08:24.055Z,11.98
2022-09-07T08:10:51.632Z,12.98
2022-09-07T08:13:19.317Z,10.85
2022-09-07T08:18:17.260Z,8.80
2022-09-07T08:20:44.664Z,12.02
2022-09-07T08:23:12.022Z,13.93
2022-09-07T08:25:39.154Z,8.20
2022-09-07T08:28:06.319Z,7.85
2022-09-07T08:30:33.370Z,8.18
2022-09-07T08:33:00.344Z,7.32
2022-09-07T08:35:27.479Z,15.63
2022-09-07T08:37:54.477Z,9.48
2022-09-07T08:40:21.526Z,7.38
2022-09-07T08:43:37.899Z,9.32
2022-09-07T08:46:23.541Z,9.07
2022-09-07T08:48:50.955Z,11.10
2022-09-07T08:51:40.643Z,9.10
2022-09-07T08:54:14.397Z,13.57
2022-09-07T09:00:06.001Z,12.50
2022-09-07T09:02:40.231Z,9.02
2022-09-07T09:06:05.159Z,10.82
2022-09-07T09:09:25.463Z,10.45
2022-09-07T09:13:04.971Z,11.88
2022-09-07T09:16:02.666Z,11.80
2022-09-07T09:19:25.521Z,12.15
2022-09-07T09:22:15.694Z,11.88
2022-09-07T09:25:16.859Z,15.15
2022-09-07T09:27:43.907Z,10.18
2022-09-07T09:30:24.280Z,12.88
2022-09-07T09:33:18.572Z,15.55
2022-09-07T09:35:52.227Z,14.13
2022-09-07T09:38:36.944Z,9.88
2022-09-07T09:41:10.495Z,11.05
2022-09-07T09:43:56.412Z,11.35
2022-09-07T09:46:36.125Z,11.32
2022-09-07T09:49:26.289Z,12.55
2022-09-07T09:54:53.912Z,15.75
2022-09-07T10:01:36.274Z,12.02
2022-09-07T10:04:24.845Z,16.10
2022-09-07T10:07:22.850Z,13.15
2022-09-07T10:09:54.698Z,11.13
2022-09-07T10:12:37.114Z,13.45
2022-09-07T10:15:08.317Z,11.38
2022-09-07T10:17:43.500Z,12.35
2022-09-07T10:20:13.121Z,13.05
2022-09-07T10:22:40.911Z,11.30
2022-09-07T10:25:37.217Z,10.80
2022-09-07T10:28:25.205Z,11.70
2022-09-07T10:31:32.087Z,10.87
2022-09-07T10:34:50.656Z,13.82
2022-09-07T10:38:00.635Z,10.32
2022-09-07T10:40:53.239Z,12.32
2022-09-07T10:43:49.771Z,11.68
2022-09-07T10:47:24.833Z,13.85
2022-09-07T10:50:23.510Z,14.15
2022-09-07T10:53:46.740Z,12.63
2022-09-07T10:57:13.478Z,10.57
2022-09-07T11:00:11.791Z,14.30
2022-09-07T11:03:29.290Z,13.52
2022-09-07T11:06:37.538Z,17.00
2022-09-07T11:09:51.864Z,13.52
2022-09-07T11:12:38.533Z,11.65
2022-09-07T11:15:27.791Z,11.82
2022-09-07T11:18:32.888Z,10.95
2022-09-07T11:21:12.519Z,14.98
2022-09-07T11:23:52.972Z,11.50
2022-09-07T11:26:25.111Z,11.57
2022-09-07T11:29:31.882Z,10.88
2022-09-07T11:32:28.886Z,11.00
2022-09-07T11:35:29.496Z,14.13
2022-09-07T11:38:14.275Z,13.02
2022-09-07T11:41:13.127Z,11.82
2022-09-07T11:44:00.921Z,12.05
2022-09-07T11:46:48.391Z,13.68
2022-09-07T11:49:26.026Z,12.13
2022-09-07T11:52:20.436Z,11.80
2022-09-07T11:55:00.631Z,20.60
2022-09-07T11:57:35.957Z,11.82
2022-09-07T12:00:31.261Z,14.20
2022-09-07T12:03:56.053Z,16.23
2022-09-07T12:07:00.760Z,16.20
2022-09-07T12:10:27.182Z,12.80
2022-09-07T12:13:47.017Z,11.55
2022-09-07T12:16:57.953Z,13.00
2022-09-07T12:19:28.301Z,14.90
2022-09-07T12:22:01.093Z,10.75
2022-09-07T12:24:45.883Z,12.45
2022-09-07T12:27:21.997Z,12.00
2022-09-07T12:30:11.841Z,11.40
2022-09-07T12:32:56.180Z,11.10
2022-09-07T12:35:29.999Z,15.20
2022-09-07T12:38:20.262Z,12.95
2022-09-07T12:40:59.312Z,11.02
2022-09-07T12:43:36.019Z,10.98
2022-09-07T12:46:03.722Z,11.32
2022-09-07T12:48:56.678Z,12.57
2022-09-07T12:55:16.718Z,11.13
2022-09-07T12:58:23.854Z,11.23
2022-09-07T13:01:49.818Z,12.18
2022-09-07T13:04:50.274Z,10.75
2022-09-07T13:08:04.329Z,10.60
2022-09-07T13:10:44.211Z,12.10
2022-09-07T13:16:30.032Z,12.07
2022-09-07T13:19:01.890Z,12.35
2022-09-07T13:21:42.742Z,12.18
2022-09-07T13:27:27.224Z,12.38
2022-09-07T13:30:24.865Z,11.80
2022-09-07T13:33:40.111Z,11.45
2022-09-07T13:36:49.491Z,11.77
2022-09-07T13:39:21.776Z,10.85
2022-09-07T13:41:58.075Z,11.88
2022-09-07T13:44:33.579Z,12.05
2022-09-07T13:47:24.546Z,12.70
2022-09-07T13:50:35.712Z,13.75
2022-09-07T13:53:30.554Z,12.43
2022-09-07T13:56:26.925Z,16.15
2022-09-07T13:58:56.552Z,11.77
2022-09-07T14:01:28.887Z,12.95
2022-09-07T14:04:11.893Z,12.32
2022-09-07T14:06:39.227Z,12.88
2022-09-07T14:09:22.401Z,12.32
2022-09-07T14:11:56.943Z,11.52
2022-09-07T14:14:33.028Z,13.65
2022-09-07T14:16:59.981Z,14.27
2022-09-07T14:19:52.099Z,16.05
2022-09-07T14:22:23.541Z,11.02
2022-09-07T14:24:58.680Z,13.70
2022-09-07T14:27:42.790Z,11.38
2022-09-07T14:30:33.445Z,11.77
2022-09-07T14:33:17.389Z,10.70
2022-09-07T14:35:44.524Z,11.63
2022-09-07T14:41:20.028Z,14.15
2022-09-07T14:44:00.872Z,12.18
2022-09-07T14:46:34.859Z,10.80
2022-09-07T14:49:21.853Z,13.15
2022-09-07T14:51:50.519Z,12.05
2022-09-07T14:54:32.398Z,11.48
2022-09-07T14:57:10.008Z,10.10
2022-09-07T14:59:47.526Z,11.95
2022-09-07T15:02:27.277Z,10.38
2022-09-07T15:05:23.675Z,10.13
2022-09-07T15:08:02.861Z,9.80
2022-09-07T15:10:41.635Z,10.93
2022-09-07T15:13:34.225Z,14.38
2022-09-07T15:16:07.366Z,13.10
2022-09-07T15:19:02.574Z,11.25
2022-09-07T15:21:36.793Z,10.27
2022-09-07T15:24:04.650Z,11.27
2022-09-07T15:29:32.840Z,10.20
2022-09-07T15:32:04.515Z,10.30
2022-09-07T15:34:34.306Z,12.35
2022-09-07T15:37:02.725Z,10.15
2022-09-07T15:39:31.385Z,11.57
2022-09-07T15:42:00.660Z,9.70
2022-09-07T15:44:46.181Z,12.00
2022-09-07T15:50:00.256Z,10.27
2022-09-07T15:52:27.261Z,10.60
2022-09-07T15:54:56.692Z,11.88
2022-09-07T16:00:12.568Z,10.77
2022-09-07T16:05:30.885Z,10.57
2022-09-07T16:10:55.375Z,9.93
2022-09-07T16:13:24.383Z,12.80
2022-09-07T16:15:51.898Z,11.02
2022-09-07T16:18:19.256Z,12.43
2022-09-07T16:20:47.272Z,12.73
2022-09-07T16:23:16.983Z,13.10
2022-09-07T16:25:59.800Z,14.27
2022-09-07T16:28:28.373Z,12.63
2022-09-07T16:30:56.293Z,15.65
2022-09-07T16:33:32.801Z,12.10
2022-09-07T16:36:17.512Z,11.48
2022-09-07T16:38:48.390Z,16.70
2022-09-07T16:41:24.552Z,10.88
2022-09-07T16:43:51.532Z,15.50
2022-09-07T16:46:24.131Z,12.23
2022-09-07T16:48:53.218Z,12.27
2022-09-07T16:51:23.511Z,13.73
2022-09-07T16:53:55.988Z,11.52
2022-09-07T16:56:27.575Z,17.35
2022-09-07T16:59:02.431Z,13.48
2022-09-07T17:01:38.102Z,13.73
2022-09-07T17:04:10.712Z,11.25
2022-09-07T17:06:40.090Z,16.33
2022-09-07T17:09:08.671Z,11.05
2022-09-07T17:11:37.463Z,11.25
2022-09-07T17:14:06.787Z,9.75
2022-09-07T17:16:40.683Z,11.52
2022-09-07T17:22:00.286Z,5.50
2022-09-07T17:24:27.723Z,6.07
2022-09-07T17:26:55.098Z,5.28
2022-09-07T17:29:22.123Z,3.78
2022-09-07T17:34:36.153Z,5.18
2022-09-07T17:37:05.990Z,3.25
2022-09-07T17:39:33.119Z,6.82
2022-09-07T17:42:01.005Z,3.80
2022-09-07T17:44:31.955Z,6.18
2022-09-07T17:47:02.389Z,4.90
2022-09-07T17:49:29.515Z,7.57
2022-09-07T17:51:58.671Z,5.70
2022-09-07T17:54:25.958Z,5.45
2022-09-07T17:56:53.176Z,9.20
2022-09-07T18:02:07.585Z,6.53
2022-09-07T18:04:36.208Z,13.63
2022-09-07T18:07:03.389Z,11.50
2022-09-07T18:09:30.711Z,12.50
2022-09-07T18:11:57.790Z,13.30
2022-09-07T18:14:24.807Z,13.52
2022-09-07T18:16:51.893Z,10.13
2022-09-07T18:19:19.973Z,12.77
2022-09-07T18:21:48.880Z,19.25
2022-09-07T18:24:22.919Z,13.40
2022-09-07T18:26:53.613Z,12.05
2022-09-07T18:29:34.369Z,11.73
2022-09-07T18:32:09.485Z,14.35
2022-09-07T18:34:41.026Z,13.45
2022-09-07T18:37:12.294Z,12.25
2022-09-07T18:39:40.749Z,13.27
2022-09-07T18:42:12.802Z,11.77
2022-09-07T18:47:29.423Z,16.13
2022-09-07T18:49:57.599Z,15.95
2022-09-07T18:55:12.109Z,14.57
2022-09-07T18:57:39.172Z,18.33
2022-09-07T19:00:11.245Z,12.98
2022-09-07T19:02:38.489Z,16.48
2022-09-07T19:07:53.542Z,15.95
2022-09-07T19:10:20.731Z,19.23
2022-09-07T19:12:47.861Z,14.23
2022-09-07T19:15:15.696Z,12.32
2022-09-07T19:20:10.449Z,15.43
2022-09-07T19:25:06.113Z,17.17
2022-09-07T19:27:33.282Z,13.45
2022-09-07T19:30:01.226Z,15.23
2022-09-07T19:34:55.993Z,14.65
2022-09-07T19:37:29.032Z,18.10
2022-09-07T19:39:56.091Z,13.75
2022-09-07T19:42:25.944Z,13.32
2022-09-07T19:44:54.279Z,15.52
2022-09-07T19:47:23.271Z,18.42
2022-09-07T19:49:50.335Z,12.20
2022-09-07T19:52:17.369Z,15.23
2022-09-07T19:54:44.313Z,22.37
2022-09-07T19:57:11.474Z,19.60
2022-09-07T19:59:38.465Z,15.15
2022-09-07T20:02:07.210Z,16.60
2022-09-07T20:04:34.683Z,15.32
2022-09-07T20:07:01.930Z,14.60
2022-09-07T20:09:28.919Z,17.58
2022-09-07T20:11:55.829Z,13.00
2022-09-07T20:14:22.846Z,14.60
2022-09-07T20:16:50.081Z,16.52
2022-09-07T20:19:17.508Z,14.65
2022-09-07T20:21:44.591Z,12.35
2022-09-07T20:24:14.928Z,17.33
2022-09-07T20:26:42.052Z,11.98
2022-09-07T20:32:00.482Z,14.10
2022-09-07T20:34:29.337Z,14.25
2022-09-07T20:36:57.138Z,12.90
2022-09-07T20:41:52.086Z,14.45
2022-09-07T20:44:19.380Z,15.82
2022-09-07T20:46:46.575Z,14.23
2022-09-07T20:49:13.751Z,14.82
2022-09-07T20:51:40.778Z,13.98
2022-09-07T20:54:07.822Z,16.38
2022-09-07T20:56:35.165Z,12.97
2022-09-07T20:59:03.925Z,13.02
2022-09-07T21:01:33.238Z,14.35
2022-09-07T21:04:01.396Z,11.45
2022-09-07T21:06:32.027Z,12.00
2022-09-07T21:09:00.004Z,12.68
2022-09-07T21:14:06.285Z,14.63
2022-09-07T21:16:35.820Z,16.08
2022-09-07T21:19:07.994Z,13.02
2022-09-07T21:21:42.320Z,14.55
2022-09-07T21:24:23.161Z,12.93
2022-09-07T21:26:51.875Z,13.75
2022-09-07T21:29:24.154Z,19.15
2022-09-07T21:31:54.578Z,16.83
2022-09-07T21:34:23.321Z,16.38
2022-09-07T21:36:50.640Z,12.40
2022-09-07T21:39:18.288Z,14.00
2022-09-07T21:41:45.892Z,14.50
2022-09-07T21:44:16.145Z,12.73
2022-09-07T21:46:44.826Z,16.15
2022-09-07T21:49:12.587Z,15.80
2022-09-07T21:51:39.941Z,16.10
2022-09-07T21:54:07.026Z,13.65
2022-09-07T21:56:34.218Z,17.13
2022-09-07T21:59:02.715Z,16.15
2022-09-07T22:01:31.853Z,12.13
2022-09-07T22:04:07.074Z,12.38
2022-09-07T22:06:35.252Z,10.63
2022-09-07T22:09:04.974Z,14.75
2022-09-07T22:11:32.159Z,19.92
2022-09-07T22:14:04.707Z,14.80
2022-09-07T22:16:35.692Z,11.57
2022-09-07T22:19:03.220Z,19.73
2022-09-07T22:21:31.314Z,14.35
2022-09-07T22:24:04.252Z,12.23
2022-09-07T22:26:40.043Z,14.73
2022-09-07T22:29:12.189Z,13.68
2022-09-07T22:31:40.401Z,12.23
2022-09-07T22:34:12.921Z,12.43
2022-09-07T22:36:44.752Z,9.55
2022-09-07T22:39:18.027Z,13.40
2022-09-07T22:41:48.266Z,12.88
2022-09-07T22:44:18.657Z,10.55
2022-09-07T22:46:48.083Z,11.02
2022-09-07T22:49:17.367Z,13.48
2022-09-07T22:51:45.091Z,12.65
2022-09-07T22:54:12.917Z,10.75
2022-09-07T22:56:40.804Z,10.88
2022-09-07T23:01:38.793Z,15.00
2022-09-07T23:04:07.806Z,14.23
2022-09-07T23:06:42.381Z,10.15
2022-09-07T23:09:17.698Z,10.55
2022-09-07T23:11:48.231Z,10.07
2022-09-07T23:14:22.094Z,12.18
2022-09-07T23:16:49.978Z,13.50
2022-09-07T23:19:20.397Z,11.43
2022-09-07T23:21:48.610Z,12.05
2022-09-07T23:24:19.206Z,17.95
2022-09-07T23:26:47.097Z,9.98
2022-09-07T23:31:46.993Z,9.55
2022-09-07T23:34:14.041Z,11.00
2022-09-07T23:36:40.983Z,9.77
2022-09-07T23:39:07.871Z,8.80
2022-09-07T23:41:34.851Z,11.23
2022-09-07T23:44:01.940Z,10.87
2022-09-07T23:46:28.945Z,10.07
2022-09-07T23:48:55.865Z,11.07
2022-09-07T23:51:24.467Z,12.82
2022-09-07T23:53:53.522Z,10.18
2022-09-07T23:56:24.547Z,10.65
2022-09-07T23:58:51.829Z,14.57
